Arcadia, OH

12:30 PM EDT on October 02, 2014 (GMT -0400)
Arcadia Ohio Williesweather | Change Station
CLOSE
Current Station
Personal Weather Station
Location: ARCADIA, OH
Elevation: 820 ft
Nearby Weather Stations

Elev 820 ft 41.12 °N, 83.52 °W | Updated 2 seconds ago

Clear
Clear
77.0 °F
Feels Like 79 °F
N
11.0
Wind Variable Wind from SSE
Gusts 18.0 mph

Today
High -- | Low -- °F
--% Chance of Precip.
Yesterday
High -- | Low -- °F
Precip. -- in
7:31 AM 7:14 PM
First Quarter, 60% visible
Pressure 29.95 in
Visibility 10.0 miles
Clouds Clear
Heat Index 79 °F
Dew Point 60 °F
Humidity 55%
Rainfall 0.00 in
Snow Depth Not available.
UV 5 out of 12
Pollen 3.90 out of 12
Air Quality Not available.
Flu Activity Not available.
METAR KFDY 021553Z AUTO 16012KT 10SM CLR 24/16 A2997 RMK AO2 SLP142 T02440156

More Conditions Fewer Conditions

Pressure 29.95 in
Visibility 10.0 miles
Clouds Clear
Heat Index 79 °F
Dew Point 60 °F
Humidity 55%
Rainfall 0.00 in
Snow Depth Not available.
UV 5 out of 12
Pollen 3.90 out of 12
Air Quality Not available.
Flu Activity Not available.
METAR KFDY 021553Z AUTO 16012KT 10SM CLR 24/16 A2997 RMK AO2 SLP142 T02440156

More Conditions Fewer Conditions

10-Day Weather Forecast

Almanac

Astronomy

Oct. 02, 2014 Rise Set
Actual Time 7:31 AM EDT 7:14 PM EDT
Civil Twilight 7:04 AM EDT 7:41 PM EDT
Nautical Twilight 6:32 AM EDT 8:13 PM EDT
Astronomical Twilight 6:00 AM EDT 8:45 PM EDT
Moon 3:22 PM EDT 12:44 AM EDT
Length of Visible Light 12h 37m
Length of Day
11h 42m
Tomorrow will be 2m 42s shorter.
First Quarter, 60% of the Moon is Illuminated
Today
First Quarter
Oct 8
Full
Oct 15
Last Quarter
Oct 23
New
Oct 30
First Quarter

Today's Extremes

State Highs State Lows

Community

WunderPhotos

Upload Photos

1,758,294 photos uploaded!

WunderBlogs® & News

Nearby

Snow Depth

Station Depth Elevation
No new snow has been reported.

Earthquake Activity

City Distance Mag. Time & Date
No recent earthquake activity has been reported nearby.
Minimum magnitude displayed is 2.5.

Coastal Water Temperatures

Place Temperature
No Stations Reporting

Nearby Weather Stations